KGGW/GGW METAR and TAF weather

Enter ICAO airport designator
Station Type Date Time Source
KGGW METAR 2021/03/08 11:53 UTC NOAA

KGGW 081153Z AUTO 16004KT 10SM CLR M02/M06 A3005 RMK AO2 SLP196 T10171056 10011 21022 53005


Station Type Date Time Source
KGGW Decoded METAR 2021/03/08 11:53 UTC NOAA

GLASGOW INTERNATIONAL AIRPORT , MT, United States (KGGW) 48-13N 106-37W 693M
Mar 08, 2021 - 06:53 AM EST / 2021.03.08 1153 UTC
Wind: from the SSE (160 degrees) at 5 MPH (4 KT):0
Visibility: 10 mile(s):0
Sky conditions: clear
Temperature: 28.9 F (-1.7 C)
Windchill: 23 F (-5 C):1
Dew Point: 21.9 F (-5.6 C)
Relative Humidity: 74%
Pressure (altimeter): 30.05 in. Hg (1017 hPa)
Pressure tendency: 0.01 inches (0.5 hPa) higher than three hours ago
ob: KGGW 081153Z AUTO 16004KT 10SM CLR M02/M06 A3005 RMK AO2 SLP196 T10171056 10011 21022 53005
cycle: 12

Station Type Date Time Source
KGGW TAF 2021/03/08 12:22 UTC NOAA

TAF KGGW 081120Z 0812/0912 VRB06KT P6SM SCT090
FM090000 01013G22KT P6SM OVC060 PROB30 0906/0907 6SM -SN OVC050
FM090700 34013G22KT P6SM VCSH BKN020 PROB30 0911/0912 1SM -SN OVC008

Example: see airport list